Terminal Aerodrome Forecast
Issued by NWS Spokane, WA

Home | Current Version | Previous Version | Text Only | Print | Product List | Glossary On
Versions: 1 2 3 4 5 6 7 8 9 10 11 12 13 14 15 16 17 18 19 20 21 22 23 24 25 26 27 28 29 30 31 32 33 34 35
000
FTUS46 KOTX 182328
TAFGEG
TAF
KGEG 182328Z 1900/1924 18005KT P6SM SCT020 BKN040 OVC070
     FM190800 13005KT P6SM -RA BKN015 OVC025
     FM191300 14006KT 4SM -RA BR BKN008 OVC015
     FM192000 21010KT P6SM OVC012=

USA.gov is the U.S. government's official web portal to all federal, state and local government web resources and services.